createdAt,value
2019-01-23T00:00:09.254Z,0
2019-01-23T00:01:09.481Z,0
2019-01-23T00:02:09.457Z,0
2019-01-23T00:03:09.181Z,0
2019-01-23T00:04:09.413Z,0
2019-01-23T00:05:09.143Z,0
2019-01-23T00:06:09.377Z,0
2019-01-23T00:07:09.349Z,0
2019-01-23T00:08:09.310Z,0
2019-01-23T00:09:09.288Z,0
2019-01-23T00:10:09.030Z,0
2019-01-23T00:11:09.247Z,0
2019-01-23T00:12:09.220Z,0
2019-01-23T00:13:10.432Z,0
2019-01-23T00:14:08.927Z,0
2019-01-23T00:15:09.151Z,0
2019-01-23T00:16:09.130Z,0
2019-01-23T00:17:08.863Z,0
2019-01-23T00:18:09.087Z,0
2019-01-23T00:19:09.056Z,0
2019-01-23T00:20:08.794Z,0
2019-01-23T00:21:09.015Z,0
2019-01-23T00:22:08.742Z,0
2019-01-23T00:23:08.728Z,0
2019-01-23T00:24:08.945Z,0
2019-01-23T00:25:08.680Z,0
2019-01-23T00:26:08.650Z,0
2019-01-23T00:27:08.870Z,0
2019-01-23T00:28:08.858Z,0
2019-01-23T00:29:08.587Z,0
2019-01-23T00:30:08.800Z,0
2019-01-23T00:31:08.782Z,0
2019-01-23T00:32:08.761Z,0
2019-01-23T00:33:08.245Z,0
2019-01-23T00:34:08.706Z,0
2019-01-23T00:35:08.695Z,0
2019-01-23T00:36:08.417Z,0
2019-01-23T00:37:08.645Z,0
2019-01-23T00:38:08.385Z,0
2019-01-23T00:39:08.599Z,0
2019-01-23T00:40:08.571Z,0
2019-01-23T00:41:08.322Z,0
2019-01-23T00:42:08.333Z,0
2019-01-23T00:43:08.556Z,0
2019-01-23T00:44:08.046Z,0
2019-01-23T00:45:08.513Z,0
2019-01-23T00:46:08.505Z,0
2019-01-23T00:47:21.202Z,0
2019-01-23T00:48:08.446Z,0
2019-01-23T00:49:08.414Z,0
2019-01-23T00:50:08.400Z,0
2019-01-23T00:51:08.121Z,0
2019-01-23T00:52:08.343Z,0
2019-01-23T00:53:08.326Z,0
2019-01-23T00:54:08.308Z,0
2019-01-23T00:55:08.286Z,0
2019-01-23T00:56:08.267Z,0
2019-01-23T00:57:08.232Z,0
2019-01-23T00:58:08.209Z,0
2019-01-23T00:59:07.947Z,0
2019-01-23T01:00:08.410Z,0
2019-01-23T01:01:08.141Z,0
2019-01-23T01:02:07.871Z,0
2019-01-23T01:03:07.841Z,0
2019-01-23T01:04:08.073Z,0
2019-01-23T01:05:07.798Z,0
2019-01-23T01:06:07.773Z,0
2019-01-23T01:07:08.003Z,0
2019-01-23T01:08:07.728Z,0
2019-01-23T01:09:07.955Z,0
2019-01-23T01:10:07.936Z,0
2019-01-23T01:11:07.667Z,0
2019-01-23T01:12:07.881Z,0
2019-01-23T01:13:07.861Z,0
2019-01-23T01:14:07.835Z,0
2019-01-23T01:15:13.245Z,0
2019-01-23T01:16:07.795Z,0
2019-01-23T01:17:07.765Z,0
2019-01-23T01:18:07.491Z,0
2019-01-23T01:19:07.717Z,0
2019-01-23T01:20:07.597Z,0
2019-01-23T01:21:07.668Z,0
2019-01-23T01:22:07.642Z,0
2019-01-23T01:23:07.629Z,0
2019-01-23T01:24:07.599Z,0
2019-01-23T01:25:07.572Z,0
2019-01-23T01:26:07.556Z,0
2019-01-23T01:27:07.282Z,0
2019-01-23T01:28:07.258Z,0
2019-01-23T01:29:07.485Z,0
2019-01-23T01:30:07.458Z,0
2019-01-23T01:31:07.434Z,0
2019-01-23T01:32:07.159Z,0
2019-01-23T01:33:07.139Z,0
2019-01-23T01:34:07.112Z,0
2019-01-23T01:35:07.390Z,0
2019-01-23T01:36:07.069Z,0
2019-01-23T01:37:07.293Z,0
2019-01-23T01:38:07.271Z,0
2019-01-23T01:39:07.243Z,0
2019-01-23T01:40:07.121Z,0
2019-01-23T01:41:06.949Z,0
2019-01-23T01:42:07.175Z,0
2019-01-23T01:43:06.898Z,0
2019-01-23T01:44:07.129Z,0
2019-01-23T01:45:07.102Z,0
2019-01-23T01:46:07.083Z,0
2019-01-23T01:47:07.061Z,0
2019-01-23T01:48:07.024Z,0
2019-01-23T01:49:07.005Z,0
2019-01-23T01:50:06.739Z,0
2019-01-23T01:51:06.958Z,0
2019-01-23T01:52:06.685Z,0
2019-01-23T01:53:06.912Z,0
2019-01-23T01:54:06.634Z,0
2019-01-23T01:55:06.863Z,0
2019-01-23T01:56:06.831Z,0
2019-01-23T01:57:06.821Z,0
2019-01-23T01:58:10.151Z,0
2019-01-23T01:59:12.443Z,0
2019-01-23T02:00:06.493Z,0
2019-01-23T02:01:06.719Z,0
2019-01-23T02:02:06.688Z,0
2019-01-23T02:03:06.667Z,0
2019-01-23T02:04:06.162Z,0
2019-01-23T02:05:05.875Z,0
2019-01-23T02:06:06.603Z,0
2019-01-23T02:07:06.569Z,0
2019-01-23T02:08:06.545Z,0
2019-01-23T02:09:06.524Z,0
2019-01-23T02:10:06.504Z,0
2019-01-23T02:11:06.228Z,0
2019-01-23T02:12:06.445Z,0
2019-01-23T02:13:06.203Z,0
2019-01-23T02:14:06.415Z,0
2019-01-23T02:15:06.378Z,0
2019-01-23T02:16:06.199Z,0
2019-01-23T02:17:06.345Z,0
2019-01-23T02:18:06.301Z,0
2019-01-23T02:19:06.281Z,0
2019-01-23T02:20:06.023Z,0
2019-01-23T02:21:06.237Z,0
2019-01-23T02:22:06.207Z,0
2019-01-23T02:23:05.935Z,0
2019-01-23T02:24:06.187Z,0
2019-01-23T02:25:06.144Z,0
2019-01-23T02:26:05.854Z,0
2019-01-23T02:27:05.589Z,0
2019-01-23T02:28:06.060Z,0
2019-01-23T02:29:11.993Z,0
2019-01-23T02:30:06.026Z,0
2019-01-23T02:31:05.984Z,0
2019-01-23T02:32:05.727Z,0
2019-01-23T02:33:05.933Z,0
2019-01-23T02:34:05.918Z,0
2019-01-23T02:35:05.891Z,0
2019-01-23T02:36:05.872Z,0
2019-01-23T02:37:05.834Z,0
2019-01-23T02:38:05.831Z,0
2019-01-23T02:39:05.564Z,0
2019-01-23T02:40:05.274Z,0
2019-01-23T02:41:05.759Z,0
2019-01-23T02:42:05.718Z,0
2019-01-23T02:43:05.453Z,0
2019-01-23T02:44:05.667Z,0
2019-01-23T02:45:05.644Z,0
2019-01-23T02:46:05.639Z,0
2019-01-23T02:47:05.598Z,0
2019-01-23T02:48:05.910Z,0
2019-01-23T02:49:05.552Z,0
2019-01-23T02:50:05.310Z,0
2019-01-23T02:51:05.501Z,0
2019-01-23T02:52:05.482Z,0
2019-01-23T02:53:05.201Z,0
2019-01-23T02:54:05.429Z,0
2019-01-23T02:55:05.158Z,0
2019-01-23T02:56:05.131Z,0
2019-01-23T02:57:05.346Z,0
2019-01-23T02:58:05.370Z,0
2019-01-23T02:59:05.296Z,0
2019-01-23T03:00:05.291Z,0
2019-01-23T03:01:05.247Z,0
2019-01-23T03:02:04.978Z,0
2019-01-23T03:03:05.203Z,0
2019-01-23T03:04:05.181Z,0
2019-01-23T03:05:05.192Z,0
2019-01-23T03:06:05.163Z,0
2019-01-23T03:07:04.604Z,0
2019-01-23T03:08:05.094Z,0
2019-01-23T03:09:04.798Z,0
2019-01-23T03:10:05.032Z,0
2019-01-23T03:11:05.002Z,0
2019-01-23T03:12:04.761Z,0
2019-01-23T03:13:04.951Z,0
2019-01-23T03:14:04.938Z,0
2019-01-23T03:15:04.921Z,0
2019-01-23T03:16:04.877Z,0
2019-01-23T03:17:04.608Z,0
2019-01-23T03:18:04.828Z,0
2019-01-23T03:19:04.558Z,0
2019-01-23T03:20:04.784Z,0
2019-01-23T03:21:04.765Z,0
2019-01-23T03:22:04.480Z,0
2019-01-23T03:23:04.706Z,0
2019-01-23T03:24:04.683Z,0
2019-01-23T03:25:04.649Z,0
2019-01-23T03:26:04.633Z,0
2019-01-23T03:27:04.609Z,0
2019-01-23T03:28:04.575Z,0
2019-01-23T03:29:04.305Z,0
2019-01-23T03:30:04.283Z,0
2019-01-23T03:31:04.526Z,0
2019-01-23T03:32:04.502Z,0
2019-01-23T03:33:04.492Z,0
2019-01-23T03:34:04.183Z,0
2019-01-23T03:35:04.411Z,0
2019-01-23T03:36:04.388Z,0
2019-01-23T03:37:04.115Z,0
2019-01-23T03:38:04.335Z,0
2019-01-23T03:39:04.060Z,0
2019-01-23T03:40:04.279Z,0
2019-01-23T03:41:04.007Z,0
2019-01-23T03:42:04.238Z,0
2019-01-23T03:43:04.242Z,0
2019-01-23T03:44:04.173Z,0
2019-01-23T03:45:05.354Z,0
2019-01-23T03:46:04.141Z,0
2019-01-23T03:47:04.104Z,0
2019-01-23T03:48:03.588Z,0
2019-01-23T03:49:04.051Z,0
2019-01-23T03:50:04.029Z,0
2019-01-23T03:51:03.754Z,0
2019-01-23T03:52:03.749Z,0
2019-01-23T03:53:03.719Z,0
2019-01-23T03:54:03.945Z,0
2019-01-23T03:55:03.912Z,0
2019-01-23T03:56:03.893Z,0
2019-01-23T03:57:03.931Z,0
2019-01-23T03:58:03.837Z,0
2019-01-23T03:59:03.810Z,0
2019-01-23T04:00:03.789Z,0
2019-01-23T04:01:03.757Z,0
2019-01-23T04:02:03.729Z,0
2019-01-23T04:03:03.705Z,0
2019-01-23T04:04:03.473Z,0
2019-01-23T04:05:03.665Z,0
2019-01-23T04:06:03.636Z,0
2019-01-23T04:07:03.627Z,0
2019-01-23T04:08:03.334Z,0
2019-01-23T04:09:03.067Z,0
2019-01-23T04:10:03.561Z,0
2019-01-23T04:11:03.518Z,0
2019-01-23T04:12:03.521Z,0
2019-01-23T04:13:03.475Z,0
2019-01-23T04:14:03.465Z,0
2019-01-23T04:15:03.165Z,0
2019-01-23T04:16:03.404Z,0
2019-01-23T04:17:03.373Z,0
2019-01-23T04:18:03.345Z,0
2019-01-23T04:19:03.353Z,0
2019-01-23T04:20:03.049Z,0
2019-01-23T04:21:03.272Z,0
2019-01-23T04:22:03.250Z,0
2019-01-23T04:23:03.212Z,0
2019-01-23T04:24:02.950Z,0
2019-01-23T04:25:02.912Z,0
2019-01-23T04:26:02.890Z,0
2019-01-23T04:27:03.107Z,0
2019-01-23T04:28:03.097Z,0
2019-01-23T04:29:03.071Z,0
2019-01-23T04:30:03.040Z,0
2019-01-23T04:31:03.012Z,0
2019-01-23T04:32:02.995Z,0
2019-01-23T04:33:03.038Z,0
2019-01-23T04:34:02.951Z,0
2019-01-23T04:35:02.916Z,0
2019-01-23T04:36:02.890Z,0
2019-01-23T04:37:02.882Z,0
2019-01-23T04:38:02.983Z,0
2019-01-23T04:39:02.806Z,0
2019-01-23T04:40:02.820Z,0
2019-01-23T04:41:02.512Z,0
2019-01-23T04:42:02.736Z,0
2019-01-23T04:43:02.716Z,0
2019-01-23T04:44:02.695Z,0
2019-01-23T04:45:02.664Z,0
2019-01-23T04:46:02.654Z,0
2019-01-23T04:47:02.364Z,0
2019-01-23T04:48:02.591Z,0
2019-01-23T04:49:02.573Z,0
2019-01-23T04:50:02.567Z,0
2019-01-23T04:51:02.545Z,0
2019-01-23T04:52:02.240Z,0
2019-01-23T04:53:02.224Z,0
2019-01-23T04:54:02.235Z,0
2019-01-23T04:55:02.447Z,0
2019-01-23T04:56:02.381Z,0
2019-01-23T04:57:02.391Z,0
2019-01-23T04:58:01.839Z,0
2019-01-23T04:59:02.326Z,0
2019-01-23T05:00:02.040Z,0
2019-01-23T05:01:02.267Z,0
2019-01-23T05:02:02.238Z,0
2019-01-23T05:03:02.218Z,0
2019-01-23T05:04:02.216Z,0
2019-01-23T05:05:01.951Z,0
2019-01-23T05:06:01.889Z,0
2019-01-23T05:07:02.121Z,0
2019-01-23T05:08:02.099Z,0
2019-01-23T05:09:01.964Z,0
2019-01-23T05:10:02.115Z,0
2019-01-23T05:11:02.015Z,0
2019-01-23T05:12:01.999Z,0
2019-01-23T05:13:01.965Z,0
2019-01-23T05:14:01.952Z,0
2019-01-23T05:15:01.451Z,0
2019-01-23T05:16:01.638Z,0
2019-01-23T05:17:01.865Z,0
2019-01-23T05:18:01.591Z,0
2019-01-23T05:19:01.823Z,0
2019-01-23T05:20:01.544Z,0
2019-01-23T05:21:01.770Z,0
2019-01-23T05:22:01.759Z,0
2019-01-23T05:23:01.718Z,0
2019-01-23T05:24:01.686Z,0
2019-01-23T05:25:01.665Z,0
2019-01-23T05:26:01.643Z,0
2019-01-23T05:27:01.360Z,0
2019-01-23T05:28:01.596Z,0
2019-01-23T05:29:01.575Z,0
2019-01-23T05:30:04.672Z,0
2019-01-23T05:31:01.513Z,0
2019-01-23T05:32:02.711Z,0
2019-01-23T05:33:01.466Z,0
2019-01-23T05:34:01.201Z,0
2019-01-23T05:35:01.454Z,0
2019-01-23T05:36:01.389Z,0
2019-01-23T05:37:01.132Z,0
2019-01-23T05:38:01.090Z,0
2019-01-23T05:39:01.318Z,0
2019-01-23T05:40:01.289Z,0
2019-01-23T05:41:01.277Z,0
2019-01-23T05:42:01.005Z,0
2019-01-23T05:43:00.969Z,0
2019-01-23T05:44:01.190Z,0
2019-01-23T05:45:01.176Z,0
2019-01-23T05:46:01.219Z,0
2019-01-23T05:47:01.119Z,0
2019-01-23T05:48:01.087Z,0
2019-01-23T05:49:00.581Z,0
2019-01-23T05:50:01.069Z,0
2019-01-23T05:51:01.044Z,0
2019-01-23T05:52:01.028Z,0
2019-01-23T05:53:00.727Z,0
2019-01-23T05:54:00.951Z,0
2019-01-23T05:55:00.910Z,0
2019-01-23T05:56:00.917Z,0
2019-01-23T05:57:00.900Z,0
2019-01-23T05:58:00.870Z,0
2019-01-23T05:59:00.815Z,0
2019-01-23T06:00:07.133Z,0
2019-01-23T06:01:00.819Z,0
2019-01-23T06:02:00.753Z,0
2019-01-23T06:03:00.762Z,0
2019-01-23T06:04:00.688Z,0
2019-01-23T06:05:00.679Z,0
2019-01-23T06:06:00.648Z,0
2019-01-23T06:07:00.629Z,0
2019-01-23T06:08:00.594Z,0
2019-01-23T06:09:00.567Z,0
2019-01-23T06:10:00.559Z,0
2019-01-23T06:11:00.517Z,0
2019-01-23T06:12:00.495Z,0
2019-01-23T06:12:59.982Z,0
2019-01-23T06:14:00.200Z,0
2019-01-23T06:15:00.426Z,0
2019-01-23T06:16:00.396Z,0
2019-01-23T06:17:00.368Z,0
2019-01-23T06:18:00.410Z,0
2019-01-23T06:19:00.319Z,0
2019-01-23T06:20:00.291Z,0
2019-01-23T06:21:00.435Z,0
2019-01-23T06:21:59.999Z,0
2019-01-23T06:23:00.213Z,0
2019-01-23T06:23:59.950Z,0
2019-01-23T06:24:59.926Z,0
2019-01-23T06:26:00.204Z,0
2019-01-23T06:26:59.867Z,0
2019-01-23T06:28:00.095Z,0
2019-01-23T06:29:00.074Z,0
2019-01-23T06:29:59.822Z,0
2019-01-23T06:31:00.017Z,0
2019-01-23T06:32:00.004Z,0
2019-01-23T06:32:59.760Z,0
2019-01-23T06:33:59.955Z,0
2019-01-23T06:34:59.924Z,0
2019-01-23T06:35:59.891Z,0
2019-01-23T06:36:59.620Z,0
2019-01-23T06:37:59.844Z,0
2019-01-23T06:38:59.563Z,0
2019-01-23T06:39:59.548Z,0
2019-01-23T06:40:59.767Z,0
2019-01-23T06:41:59.744Z,0
2019-01-23T06:42:59.725Z,0
2019-01-23T06:43:59.441Z,0
2019-01-23T06:44:59.665Z,0
2019-01-23T06:45:59.641Z,0
2019-01-23T06:46:59.648Z,0
2019-01-23T06:47:59.601Z,0
2019-01-23T06:48:59.569Z,0
2019-01-23T06:49:59.541Z,0
2019-01-23T06:50:59.515Z,0
2019-01-23T06:51:59.496Z,0
2019-01-23T06:52:59.487Z,5
2019-01-23T06:53:59.461Z,5
2019-01-23T06:54:59.175Z,5
2019-01-23T06:55:59.145Z,5
2019-01-23T06:56:59.122Z,5
2019-01-23T06:57:59.096Z,5
2019-01-23T06:58:59.323Z,5
2019-01-23T06:59:59.287Z,5
2019-01-23T07:01:00.056Z,5
2019-01-23T07:01:58.993Z,5
2019-01-23T07:02:59.222Z,5
2019-01-23T07:03:59.197Z,10
2019-01-23T07:04:59.170Z,10
2019-01-23T07:05:58.896Z,10
2019-01-23T07:06:58.876Z,10
2019-01-23T07:07:58.844Z,10
2019-01-23T07:08:59.073Z,15
2019-01-23T07:09:59.065Z,15
2019-01-23T07:10:59.020Z,15
2019-01-23T07:11:58.998Z,15
2019-01-23T07:12:58.979Z,15
2019-01-23T07:13:58.948Z,20
2019-01-23T07:14:58.672Z,20
2019-01-23T07:15:58.936Z,20
2019-01-23T07:16:58.907Z,20
2019-01-23T07:17:58.867Z,25
2019-01-23T07:18:58.604Z,25
2019-01-23T07:19:58.547Z,25
2019-01-23T07:20:58.526Z,25
2019-01-23T07:21:58.503Z,25
2019-01-23T07:22:58.482Z,30
2019-01-23T07:23:59.873Z,30
2019-01-23T07:24:58.680Z,30
2019-01-23T07:25:58.654Z,30
2019-01-23T07:26:58.621Z,35
2019-01-23T07:27:58.355Z,35
2019-01-23T07:28:58.968Z,35
2019-01-23T07:29:58.650Z,40
2019-01-23T07:30:58.522Z,40
2019-01-23T07:31:58.252Z,45
2019-01-23T07:32:58.238Z,45
2019-01-23T07:33:58.501Z,50
2019-01-23T07:34:58.434Z,50
2019-01-23T07:35:58.413Z,55
2019-01-23T07:36:58.144Z,55
2019-01-23T07:37:57.859Z,55
2019-01-23T07:38:58.329Z,55
2019-01-23T07:39:58.306Z,55
2019-01-23T07:40:58.037Z,60
2019-01-23T07:41:59.498Z,60
2019-01-23T07:42:58.244Z,60
2019-01-23T07:43:57.959Z,60
2019-01-23T07:44:58.186Z,65
2019-01-23T07:45:57.910Z,65
2019-01-23T07:46:58.141Z,65
2019-01-23T07:47:57.859Z,65
2019-01-23T07:48:57.844Z,65
2019-01-23T07:49:57.416Z,65
2019-01-23T07:50:58.040Z,65
2019-01-23T07:51:57.761Z,65
2019-01-23T07:52:57.744Z,65
2019-01-23T07:53:58.475Z,65
2019-01-23T07:54:57.936Z,70
2019-01-23T07:55:57.660Z,70
2019-01-23T07:56:57.891Z,70
2019-01-23T07:57:57.889Z,70
2019-01-23T07:58:57.839Z,75
2019-01-23T07:59:57.841Z,75
2019-01-23T08:00:57.799Z,75
2019-01-23T08:01:57.776Z,75
2019-01-23T08:02:57.750Z,75
2019-01-23T08:03:57.730Z,75
2019-01-23T08:04:57.701Z,80
2019-01-23T08:05:57.693Z,85
2019-01-23T08:06:57.401Z,85
2019-01-23T08:07:57.659Z,85
2019-01-23T08:08:57.601Z,90
2019-01-23T08:09:57.581Z,90
2019-01-23T08:10:57.308Z,90
2019-01-23T08:11:57.532Z,90
2019-01-23T08:12:57.512Z,90
2019-01-23T08:13:57.776Z,90
2019-01-23T08:14:57.463Z,95
2019-01-23T08:15:57.473Z,95
2019-01-23T08:16:57.409Z,95
2019-01-23T08:17:57.389Z,95
2019-01-23T08:18:57.120Z,100
2019-01-23T08:19:57.334Z,100
2019-01-23T08:20:57.076Z,100
2019-01-23T08:21:57.057Z,100
2019-01-23T08:22:57.265Z,100
2019-01-23T08:23:57.250Z,100
2019-01-23T08:24:57.225Z,100
2019-01-23T08:25:57.196Z,95
2019-01-23T08:26:57.170Z,95
2019-01-23T08:27:57.152Z,95
2019-01-23T08:28:57.145Z,90
2019-01-23T08:29:57.105Z,90
2019-01-23T08:30:57.090Z,95
2019-01-23T08:31:56.607Z,95
2019-01-23T08:32:56.786Z,95
2019-01-23T08:33:57.018Z,95
2019-01-23T08:34:56.990Z,95
2019-01-23T08:35:56.717Z,95
2019-01-23T08:36:56.693Z,95
2019-01-23T08:37:56.700Z,95
2019-01-23T08:38:56.895Z,95
2019-01-23T08:39:56.876Z,95
2019-01-23T08:40:56.848Z,95
2019-01-23T08:41:56.882Z,95
2019-01-23T08:42:56.566Z,95
2019-01-23T08:43:56.532Z,95
2019-01-23T08:44:56.756Z,95
2019-01-23T08:45:56.735Z,100
2019-01-23T08:46:56.712Z,100
2019-01-23T08:47:56.191Z,100
2019-01-23T08:48:56.427Z,100
2019-01-23T08:49:56.393Z,100
2019-01-23T08:50:56.635Z,100
2019-01-23T08:51:56.602Z,100
2019-01-23T08:52:56.577Z,100
2019-01-23T08:53:56.304Z,100
2019-01-23T08:54:56.274Z,100
2019-01-23T08:56:02.962Z,105
2019-01-23T08:56:56.475Z,105
2019-01-23T08:57:55.968Z,105
2019-01-23T08:58:56.199Z,105
2019-01-23T08:59:56.414Z,105
2019-01-23T09:00:56.399Z,105
2019-01-23T09:01:56.362Z,105
2019-01-23T09:02:56.346Z,105
2019-01-23T09:03:56.068Z,105
2019-01-23T09:04:56.338Z,105
2019-01-23T09:05:56.028Z,105
2019-01-23T09:06:56.015Z,105
2019-01-23T09:07:55.995Z,105
2019-01-23T09:08:55.950Z,105
2019-01-23T09:09:56.181Z,105
2019-01-23T09:10:56.162Z,105
2019-01-23T09:11:56.134Z,105
2019-01-23T09:12:56.116Z,105
2019-01-23T09:13:55.594Z,105
2019-01-23T09:14:56.068Z,105
2019-01-23T09:15:56.047Z,110
2019-01-23T09:16:56.039Z,110
2019-01-23T09:17:56.002Z,105
2019-01-23T09:18:55.494Z,105
2019-01-23T09:19:55.975Z,110
2019-01-23T09:20:55.939Z,110
2019-01-23T09:21:55.914Z,110
2019-01-23T09:22:55.902Z,110
2019-01-23T09:23:55.867Z,110
2019-01-23T09:24:55.592Z,105
2019-01-23T09:26:00.135Z,105
2019-01-23T09:26:55.796Z,110
2019-01-23T09:27:55.788Z,110
2019-01-23T09:28:55.749Z,110
2019-01-23T09:29:55.726Z,110
2019-01-23T09:31:01.842Z,115
2019-01-23T09:31:55.679Z,115
2019-01-23T09:32:55.661Z,120
2019-01-23T09:33:55.643Z,115
2019-01-23T09:34:55.616Z,115
2019-01-23T09:35:55.342Z,115
2019-01-23T09:36:55.570Z,115
2019-01-23T09:37:55.547Z,115
2019-01-23T09:38:55.271Z,115
2019-01-23T09:39:55.504Z,115
2019-01-23T09:40:55.234Z,115
2019-01-23T09:41:55.457Z,115
2019-01-23T09:42:55.196Z,115
2019-01-23T09:43:55.164Z,115
2019-01-23T09:44:55.394Z,115
2019-01-23T09:45:55.385Z,120
2019-01-23T09:46:55.450Z,120
2019-01-23T09:47:55.082Z,120
2019-01-23T09:48:56.294Z,125
2019-01-23T09:49:55.281Z,125
2019-01-23T09:50:54.770Z,125
2019-01-23T09:51:55.136Z,125
2019-01-23T09:52:55.218Z,130
2019-01-23T09:53:55.189Z,130
2019-01-23T09:54:55.167Z,130
2019-01-23T09:55:55.194Z,130
2019-01-23T09:56:54.887Z,135
2019-01-23T09:57:55.099Z,135
2019-01-23T09:58:55.083Z,135
2019-01-23T09:59:55.059Z,140
2019-01-23T10:00:59.643Z,140
2019-01-23T10:01:55.016Z,140
2019-01-23T10:02:54.987Z,145
2019-01-23T10:03:54.723Z,145
2019-01-23T10:04:54.944Z,145
2019-01-23T10:05:54.925Z,150
2019-01-23T10:06:54.901Z,155
2019-01-23T10:07:54.886Z,155
2019-01-23T10:08:54.362Z,160
2019-01-23T10:09:54.847Z,160
2019-01-23T10:10:54.565Z,165
2019-01-23T10:11:54.788Z,165
2019-01-23T10:12:54.768Z,170
2019-01-23T10:13:54.250Z,175
2019-01-23T10:14:54.737Z,180
2019-01-23T10:15:54.460Z,185
2019-01-23T10:16:54.191Z,190
2019-01-23T10:17:54.703Z,195
2019-01-23T10:19:00.778Z,195
2019-01-23T10:19:55.107Z,200
2019-01-23T10:20:54.344Z,200
2019-01-23T10:21:54.573Z,200
2019-01-23T10:22:54.653Z,200
2019-01-23T10:23:54.531Z,200
2019-01-23T10:24:54.501Z,205
2019-01-23T10:25:54.487Z,205
2019-01-23T10:26:54.474Z,210
2019-01-23T10:27:54.463Z,210
2019-01-23T10:28:54.439Z,215
2019-01-23T10:29:54.396Z,215
2019-01-23T10:30:54.127Z,215
2019-01-23T10:31:54.365Z,215
2019-01-23T10:32:54.347Z,220
2019-01-23T10:33:54.325Z,220
2019-01-23T10:34:54.294Z,220
2019-01-23T10:35:54.270Z,220
2019-01-23T10:36:54.000Z,215
2019-01-23T10:37:53.979Z,215
2019-01-23T10:38:54.251Z,210
2019-01-23T10:39:54.817Z,210
2019-01-23T10:40:53.419Z,210
2019-01-23T10:41:54.147Z,210
2019-01-23T10:42:54.126Z,210
2019-01-23T10:43:53.847Z,205
2019-01-23T10:44:53.834Z,200
2019-01-23T10:45:54.061Z,200
2019-01-23T10:46:53.776Z,195
2019-01-23T10:48:00.723Z,200
2019-01-23T10:48:53.994Z,205
2019-01-23T10:49:53.967Z,210
2019-01-23T10:50:53.961Z,215
2019-01-23T10:51:53.681Z,215
2019-01-23T10:52:54.055Z,220
2019-01-23T10:53:53.891Z,220
2019-01-23T10:54:53.619Z,225
2019-01-23T10:55:53.847Z,225
2019-01-23T10:56:53.828Z,225
2019-01-23T10:57:53.821Z,225
2019-01-23T10:58:53.782Z,230
2019-01-23T10:59:53.759Z,230
2019-01-23T11:00:53.739Z,230
2019-01-23T11:01:53.711Z,230
2019-01-23T11:02:53.705Z,225
2019-01-23T11:03:53.676Z,225
2019-01-23T11:04:53.660Z,220
2019-01-23T11:05:53.633Z,220
2019-01-23T11:06:53.126Z,225
2019-01-23T11:07:53.593Z,225
2019-01-23T11:08:53.570Z,225
2019-01-23T11:09:54.337Z,225
2019-01-23T11:10:53.528Z,225
2019-01-23T11:11:53.506Z,220
2019-01-23T11:12:53.483Z,220
2019-01-23T11:13:53.475Z,215
2019-01-23T11:14:53.447Z,215
2019-01-23T11:15:53.171Z,210
2019-01-23T11:16:53.428Z,205
2019-01-23T11:17:53.404Z,205
2019-01-23T11:18:53.114Z,200
2019-01-23T11:19:53.339Z,195
2019-01-23T11:20:53.313Z,195
2019-01-23T11:21:53.069Z,195
2019-01-23T11:22:53.275Z,195
2019-01-23T11:23:53.258Z,195
2019-01-23T11:24:52.982Z,195
2019-01-23T11:25:53.215Z,195
2019-01-23T11:26:53.197Z,195
2019-01-23T11:27:52.966Z,195
2019-01-23T11:28:53.149Z,195
2019-01-23T11:29:53.128Z,195
2019-01-23T11:30:53.108Z,190
2019-01-23T11:31:52.844Z,190
2019-01-23T11:32:53.069Z,190
2019-01-23T11:33:53.058Z,185
2019-01-23T11:34:53.023Z,185
2019-01-23T11:35:52.752Z,180
2019-01-23T11:36:52.997Z,180
2019-01-23T11:37:52.964Z,185
2019-01-23T11:38:52.940Z,180
2019-01-23T11:39:52.717Z,180
2019-01-23T11:40:52.657Z,180
2019-01-23T11:41:52.661Z,180
2019-01-23T11:42:52.604Z,175
2019-01-23T11:43:52.833Z,175
2019-01-23T11:44:52.816Z,175
2019-01-23T11:45:52.799Z,170
2019-01-23T11:46:52.781Z,170
2019-01-23T11:47:52.510Z,170
2019-01-23T11:48:52.483Z,165
2019-01-23T11:49:52.713Z,165
2019-01-23T11:50:52.696Z,165
2019-01-23T11:51:52.680Z,165
2019-01-23T11:52:52.647Z,170
2019-01-23T11:53:52.135Z,170
2019-01-23T11:54:52.608Z,175
2019-01-23T11:55:52.596Z,180
2019-01-23T11:56:52.573Z,180
2019-01-23T11:57:52.552Z,185
2019-01-23T11:58:52.534Z,190
2019-01-23T11:59:52.512Z,195
2019-01-23T12:00:52.249Z,200
2019-01-23T12:01:52.216Z,200
2019-01-23T12:02:52.196Z,200
2019-01-23T12:03:52.174Z,205
2019-01-23T12:04:52.401Z,200
2019-01-23T12:05:52.386Z,200
2019-01-23T12:06:52.363Z,200
2019-01-23T12:07:52.345Z,200
2019-01-23T12:08:52.073Z,200
2019-01-23T12:09:52.303Z,200
2019-01-23T12:10:52.282Z,200
2019-01-23T12:11:52.296Z,200
2019-01-23T12:12:51.989Z,200
2019-01-23T12:13:51.970Z,195
2019-01-23T12:14:52.197Z,195
2019-01-23T12:15:52.185Z,195
2019-01-23T12:16:52.166Z,200
2019-01-23T12:17:52.347Z,195
2019-01-23T12:18:52.125Z,195
2019-01-23T12:19:52.098Z,195
2019-01-23T12:20:51.839Z,195
2019-01-23T12:21:51.810Z,195
2019-01-23T12:22:52.057Z,195
2019-01-23T12:23:58.086Z,195
2019-01-23T12:24:51.996Z,195
2019-01-23T12:25:51.726Z,190
2019-01-23T12:26:51.954Z,190
2019-01-23T12:27:51.686Z,185
2019-01-23T12:28:51.913Z,180
2019-01-23T12:29:51.897Z,180
2019-01-23T12:30:51.620Z,175
2019-01-23T12:31:51.860Z,175
2019-01-23T12:32:51.585Z,170
2019-01-23T12:33:51.826Z,170
2019-01-23T12:34:51.794Z,165
2019-01-23T12:35:51.527Z,160
2019-01-23T12:36:51.750Z,160
2019-01-23T12:37:51.480Z,160
2019-01-23T12:38:51.704Z,155
2019-01-23T12:39:51.437Z,155
2019-01-23T12:40:51.418Z,150
2019-01-23T12:41:51.412Z,150
2019-01-23T12:42:51.627Z,145
2019-01-23T12:43:51.354Z,145
2019-01-23T12:44:51.587Z,140
2019-01-23T12:45:51.567Z,135
2019-01-23T12:46:51.296Z,135
2019-01-23T12:47:51.530Z,130
2019-01-23T12:48:51.511Z,130
2019-01-23T12:49:51.481Z,130
2019-01-23T12:50:51.468Z,125
2019-01-23T12:51:51.192Z,125
2019-01-23T12:52:51.416Z,125
2019-01-23T12:53:51.149Z,125
2019-01-23T12:54:51.421Z,125
2019-01-23T12:55:51.357Z,120
2019-01-23T12:56:51.341Z,120
2019-01-23T12:57:51.121Z,120
2019-01-23T12:58:51.293Z,120
2019-01-23T12:59:51.044Z,120
2019-01-23T13:00:51.244Z,120
2019-01-23T13:01:51.939Z,120
2019-01-23T13:02:50.969Z,120
2019-01-23T13:03:50.980Z,120
2019-01-23T13:04:51.165Z,120
2019-01-23T13:05:50.892Z,120
2019-01-23T13:06:52.492Z,120
2019-01-23T13:07:50.857Z,125
2019-01-23T13:08:50.834Z,120
2019-01-23T13:09:51.057Z,120
2019-01-23T13:10:51.047Z,120
2019-01-23T13:11:50.779Z,120
2019-01-23T13:12:51.004Z,120
2019-01-23T13:13:51.229Z,120
2019-01-23T13:14:50.703Z,120
2019-01-23T13:15:50.691Z,120
2019-01-23T13:16:50.670Z,120
2019-01-23T13:17:50.648Z,120
2019-01-23T13:18:50.865Z,120
2019-01-23T13:19:50.851Z,120
2019-01-23T13:20:50.841Z,120
2019-01-23T13:21:50.557Z,115
2019-01-23T13:22:50.536Z,120
2019-01-23T13:23:50.769Z,120
2019-01-23T13:24:50.748Z,120
2019-01-23T13:25:50.727Z,120
2019-01-23T13:26:50.710Z,120
2019-01-23T13:27:50.682Z,120
2019-01-23T13:28:50.908Z,120
2019-01-23T13:29:50.640Z,120
2019-01-23T13:30:50.612Z,120
2019-01-23T13:31:56.322Z,120
2019-01-23T13:32:50.322Z,120
2019-01-23T13:33:50.552Z,125
2019-01-23T13:34:50.887Z,125
2019-01-23T13:35:50.506Z,125
2019-01-23T13:36:50.238Z,130
2019-01-23T13:37:50.226Z,130
2019-01-23T13:38:50.502Z,135
2019-01-23T13:39:50.170Z,140
2019-01-23T13:40:50.408Z,145
2019-01-23T13:41:50.378Z,145
2019-01-23T13:42:50.357Z,150
2019-01-23T13:43:50.463Z,150
2019-01-23T13:44:50.315Z,155
2019-01-23T13:45:51.387Z,160
2019-01-23T13:46:50.272Z,160
2019-01-23T13:47:50.248Z,160
2019-01-23T13:48:49.741Z,160
2019-01-23T13:49:49.961Z,160
2019-01-23T13:50:49.945Z,160
2019-01-23T13:51:50.165Z,160
2019-01-23T13:52:49.900Z,155
2019-01-23T13:53:50.284Z,155
2019-01-23T13:54:50.103Z,150
2019-01-23T13:55:49.836Z,145
2019-01-23T13:56:50.057Z,145
2019-01-23T13:57:50.046Z,140
2019-01-23T13:58:51.247Z,135
2019-01-23T13:59:49.745Z,130
2019-01-23T14:00:49.732Z,130
2019-01-23T14:01:55.937Z,130
2019-01-23T14:02:49.930Z,130
2019-01-23T14:03:49.412Z,130
2019-01-23T14:04:49.657Z,130
2019-01-23T14:05:49.865Z,130
2019-01-23T14:06:49.847Z,130
2019-01-23T14:07:49.823Z,130
2019-01-23T14:08:49.583Z,125
2019-01-23T14:09:49.541Z,125
2019-01-23T14:10:49.761Z,125
2019-01-23T14:11:49.489Z,125
2019-01-23T14:12:49.487Z,125
2019-01-23T14:13:49.718Z,125
2019-01-23T14:14:49.723Z,125
2019-01-23T14:15:49.665Z,125
2019-01-23T14:16:49.715Z,125
2019-01-23T14:17:49.613Z,125